Wichita Mid Continent Airport
KICT : now visible

Airfield :











YOU CAN JOIN US ON...

 
LOGIN :

Register | Disclaimer

   EN    FR    IT 

 









Legend :    VFR   Marginal VFR   IFR   Intensive IFR   Very Intensive IFR
Visi :
Ceiling :
>= 8 km
>= 3000ft
5 to 8 km
1000 to 3000 ft
1500m to 5 km
500 to 1000 ft
800 to 1500m
200 to 500 ft
< 800m
< 200 ft
Symbols :   Thunderstorms  Fog  Heavy snow  Heavy precipitations  Wind > 20 kt






- Airport Elevation : 1333 ft
- IATA code : ICT


KICT - Wichita Mid Continent

CURRENT METAR :
  • 052353Z 14004KT 10SM FEW150 SCT180 BKN210 12/M05 A3004 RMK AO2 SLP177 T01171050 10167 20111 56013

EXPIRED METARs :
  • 052253Z COR 14007KT 10SM FEW150 BKN180 BKN210 17/M03 A3005 RMK AO2 SLP178 T01671033
  • 052153Z 13005KT 10SM FEW150 SCT180 BKN210 16/M03 A3007 RMK AO2 SLP185 T01561033

TAF KICT
Valid from the 06 at 00:00 until the 07 at 00:00 UTC


052336Z 0600/0624 13006KT P6SM FEW250
FM060900 14011KT P6SM SCT160
FM061300 16015G23KT P6SM BKN030 WS020/21040KT
FM061700 19015G23KT P6SM BKN060
FM062100 22014KT P6SM SCT170
KZKC FIR / North America



MET'MAP, your aeronautical weather chart ! - Copyright ORBIFLY December 2007 - Disclaimer

ORBIFLY MET'MAP TEAM :

Programming & Development : Alexandra Zaïnal
Original concept : Baudouin d'Aumeries
Technical & hardware support : Manuel Goepfert
Assistance : Marc-Olivier Méhu




SOURCES & CREDITS :

   NOAA       Earth
Advisory